createdAt,value
2023-03-02T00:02:03.382Z,15.30
2023-03-02T00:04:52.645Z,13.55
2023-03-02T00:07:24.273Z,13.70
2023-03-02T00:09:51.439Z,14.90
2023-03-02T00:12:18.634Z,14.38
2023-03-02T00:14:45.827Z,13.93
2023-03-02T00:17:12.964Z,12.98
2023-03-02T00:19:40.323Z,13.07
2023-03-02T00:22:09.015Z,13.13
2023-03-02T00:24:37.386Z,14.02
2023-03-02T00:27:04.537Z,14.27
2023-03-02T00:29:31.900Z,13.63
2023-03-02T00:31:59.135Z,13.65
2023-03-02T00:34:26.249Z,13.75
2023-03-02T00:36:53.493Z,13.68
2023-03-02T00:39:21.077Z,13.02
2023-03-02T00:41:48.729Z,13.55
2023-03-02T00:44:17.470Z,13.68
2023-03-02T00:46:44.879Z,12.60
2023-03-02T00:49:12.806Z,13.18
2023-03-02T00:51:39.924Z,12.90
2023-03-02T00:54:07.046Z,14.13
2023-03-02T00:56:34.652Z,13.82
2023-03-02T00:59:27.499Z,12.52
2023-03-02T01:01:58.209Z,12.38
2023-03-02T01:04:31.561Z,13.35
2023-03-02T01:07:00.427Z,13.20
2023-03-02T01:09:27.870Z,12.27
2023-03-02T01:11:55.260Z,11.57
2023-03-02T01:14:23.020Z,12.50
2023-03-02T01:16:50.149Z,12.68
2023-03-02T01:19:17.474Z,12.15
2023-03-02T01:21:44.735Z,10.73
2023-03-02T01:24:11.939Z,11.45
2023-03-02T01:26:39.087Z,11.27
2023-03-02T01:29:06.283Z,12.00
2023-03-02T01:31:33.523Z,12.85
2023-03-02T01:34:00.793Z,11.68
2023-03-02T01:36:27.974Z,11.82
2023-03-02T01:38:55.276Z,11.82
2023-03-02T01:45:53.558Z,10.80
2023-03-02T01:48:28.942Z,11.80
2023-03-02T01:50:56.205Z,10.82
2023-03-02T01:53:26.288Z,11.63
2023-03-02T01:55:53.595Z,11.65
2023-03-02T01:58:20.936Z,11.05
2023-03-02T02:00:48.245Z,11.38
2023-03-02T02:03:21.070Z,11.57
2023-03-02T02:05:56.443Z,11.00
2023-03-02T02:08:23.994Z,11.20
2023-03-02T02:10:51.673Z,11.18
2023-03-02T02:13:19.041Z,10.73
2023-03-02T02:15:46.242Z,10.77
2023-03-02T02:18:13.486Z,11.57
2023-03-02T02:20:42.470Z,12.23
2023-03-02T02:23:19.250Z,11.60
2023-03-02T02:25:55.475Z,11.43
2023-03-02T02:28:27.152Z,10.70
2023-03-02T02:31:05.981Z,11.68
2023-03-02T02:33:34.119Z,11.82
2023-03-02T02:36:05.258Z,10.80
2023-03-02T02:38:33.799Z,11.88
2023-03-02T02:41:04.457Z,11.95
2023-03-02T02:43:32.844Z,12.40
2023-03-02T02:46:00.551Z,12.18
2023-03-02T02:48:31.204Z,11.60
2023-03-02T02:51:03.347Z,11.00
2023-03-02T02:53:41.860Z,11.93
2023-03-02T02:56:09.634Z,11.20
2023-03-02T02:58:43.800Z,12.40
2023-03-02T03:01:14.187Z,11.05
2023-03-02T03:03:46.555Z,11.98
2023-03-02T03:06:18.403Z,11.77
2023-03-02T03:08:49.090Z,12.32
2023-03-02T03:11:27.485Z,13.38
2023-03-02T03:14:20.896Z,10.77
2023-03-02T03:16:49.546Z,12.32
2023-03-02T03:19:18.378Z,11.85
2023-03-02T03:21:45.686Z,13.02
2023-03-02T03:24:13.096Z,13.10
2023-03-02T03:26:40.349Z,12.45
2023-03-02T03:29:07.623Z,12.30
2023-03-02T03:31:34.941Z,12.05
2023-03-02T03:34:02.746Z,13.50
2023-03-02T03:36:31.138Z,13.70
2023-03-02T03:38:59.035Z,13.27
2023-03-02T03:41:26.375Z,13.98
2023-03-02T03:43:53.630Z,13.90
2023-03-02T03:46:21.206Z,14.18
2023-03-02T03:48:48.424Z,12.68
2023-03-02T03:51:15.756Z,14.32
2023-03-02T03:53:42.978Z,14.57
2023-03-02T03:56:10.414Z,14.93
2023-03-02T03:58:37.872Z,15.57
2023-03-02T04:01:05.211Z,14.80
2023-03-02T04:03:32.456Z,15.63
2023-03-02T04:05:59.697Z,16.25
2023-03-02T04:08:27.704Z,16.40
2023-03-02T04:10:54.864Z,17.88
2023-03-02T04:13:22.000Z,16.88
2023-03-02T04:15:49.211Z,18.70
2023-03-02T04:18:16.378Z,17.85
2023-03-02T04:20:43.586Z,18.63
2023-03-02T04:23:10.859Z,15.60
2023-03-02T04:25:38.043Z,16.55
2023-03-02T04:28:05.350Z,17.42
2023-03-02T04:30:33.147Z,16.25
2023-03-02T04:33:00.439Z,16.15
2023-03-02T04:35:27.725Z,16.85
2023-03-02T04:37:54.993Z,18.77
2023-03-02T04:40:22.224Z,18.90
2023-03-02T04:42:50.649Z,19.70
2023-03-02T04:45:17.993Z,18.48
2023-03-02T04:47:45.150Z,19.25
2023-03-02T04:50:13.844Z,19.08
2023-03-02T04:52:41.797Z,18.17
2023-03-02T04:55:09.493Z,18.08
2023-03-02T04:57:36.776Z,17.60
2023-03-02T05:00:04.930Z,19.58
2023-03-02T05:02:32.264Z,16.27
2023-03-02T05:04:59.523Z,17.75
2023-03-02T05:07:27.859Z,18.17
2023-03-02T05:09:55.102Z,16.58
2023-03-02T05:12:22.281Z,16.85
2023-03-02T05:14:49.487Z,18.25
2023-03-02T05:17:16.675Z,16.63
2023-03-02T05:19:43.833Z,15.15
2023-03-02T05:22:11.036Z,17.13
2023-03-02T05:24:38.334Z,15.85
2023-03-02T05:27:05.489Z,16.73
2023-03-02T05:29:32.685Z,16.77
2023-03-02T05:31:59.943Z,18.70
2023-03-02T05:34:27.711Z,16.98
2023-03-02T05:36:54.991Z,17.63
2023-03-02T05:39:22.228Z,19.65
2023-03-02T05:41:49.506Z,20.58
2023-03-02T05:44:16.727Z,18.75
2023-03-02T05:46:43.955Z,18.63
2023-03-02T05:49:11.271Z,18.30
2023-03-02T05:51:38.402Z,19.77
2023-03-02T05:54:05.670Z,20.85
2023-03-02T05:56:33.336Z,19.55
2023-03-02T05:59:00.776Z,20.90
2023-03-02T06:01:27.948Z,19.88
2023-03-02T06:03:55.828Z,20.55
2023-03-02T06:06:23.080Z,21.63
2023-03-02T06:08:50.253Z,20.25
2023-03-02T06:11:17.412Z,23.75
2023-03-02T06:13:44.667Z,21.92
2023-03-02T06:16:11.831Z,20.13
2023-03-02T06:18:41.387Z,21.35
2023-03-02T06:21:08.963Z,19.83
2023-03-02T06:23:36.156Z,22.17
2023-03-02T06:26:10.742Z,21.08
2023-03-02T06:28:51.358Z,21.38
2023-03-02T06:31:20.744Z,21.13
2023-03-02T06:33:48.093Z,20.70
2023-03-02T06:36:16.916Z,20.65
2023-03-02T06:38:44.674Z,22.77
2023-03-02T06:41:11.852Z,20.58
2023-03-02T06:43:39.128Z,21.70
2023-03-02T06:46:06.728Z,22.38
2023-03-02T06:48:33.995Z,20.05
2023-03-02T06:51:01.303Z,22.40
2023-03-02T06:53:28.638Z,22.63
2023-03-02T06:55:55.828Z,22.10
2023-03-02T06:58:22.997Z,23.70
2023-03-02T07:00:50.171Z,26.38
2023-03-02T07:03:17.859Z,24.30
2023-03-02T07:05:46.315Z,22.70
2023-03-02T07:08:13.701Z,24.80
2023-03-02T07:10:40.857Z,23.73
2023-03-02T07:13:09.248Z,24.17
2023-03-02T07:15:39.138Z,24.48
2023-03-02T07:18:06.558Z,26.50
2023-03-02T07:20:34.236Z,23.83
2023-03-02T07:23:02.186Z,25.27
2023-03-02T07:25:29.462Z,25.17
2023-03-02T07:27:56.641Z,27.52
2023-03-02T07:30:23.935Z,23.88
2023-03-02T07:32:51.476Z,26.05
2023-03-02T07:35:18.996Z,24.60
2023-03-02T07:37:46.281Z,22.98
2023-03-02T07:40:13.832Z,22.85
2023-03-02T07:42:41.299Z,23.35
2023-03-02T07:45:08.891Z,20.50
2023-03-02T07:47:36.164Z,22.88
2023-03-02T07:50:03.871Z,21.52
2023-03-02T07:52:31.106Z,20.45
2023-03-02T07:54:58.314Z,21.77
2023-03-02T07:57:25.605Z,22.48
2023-03-02T07:59:52.880Z,19.40
2023-03-02T08:02:22.664Z,20.92
2023-03-02T08:04:49.902Z,19.25
2023-03-02T08:07:18.914Z,19.63
2023-03-02T08:09:46.215Z,20.73
2023-03-02T08:12:13.437Z,22.00
2023-03-02T08:14:40.773Z,19.38
2023-03-02T08:17:08.408Z,21.05
2023-03-02T08:19:35.645Z,19.45
2023-03-02T08:22:02.832Z,22.85
2023-03-02T08:24:30.081Z,22.70
2023-03-02T08:27:00.980Z,20.15
2023-03-02T08:29:28.397Z,20.83
2023-03-02T08:31:55.678Z,20.38
2023-03-02T08:34:22.994Z,22.63
2023-03-02T08:36:50.260Z,22.70
2023-03-02T08:39:17.833Z,21.63
2023-03-02T08:41:45.125Z,21.83
2023-03-02T08:44:12.307Z,20.90
2023-03-02T08:46:39.549Z,20.38
2023-03-02T08:49:06.749Z,22.67
2023-03-02T08:51:34.282Z,20.90
2023-03-02T08:54:02.536Z,20.98
2023-03-02T08:56:33.142Z,22.05
2023-03-02T08:59:04.308Z,22.60
2023-03-02T09:01:36.161Z,21.77
2023-03-02T09:04:05.354Z,21.13
2023-03-02T09:06:35.410Z,20.77
2023-03-02T09:09:03.789Z,21.40
2023-03-02T09:11:31.890Z,21.00
2023-03-02T09:13:59.316Z,21.50
2023-03-02T09:16:26.853Z,20.38
2023-03-02T09:18:55.217Z,20.95
2023-03-02T09:21:22.667Z,20.52
2023-03-02T09:23:53.720Z,20.80
2023-03-02T09:26:21.050Z,22.23
2023-03-02T09:28:48.284Z,19.92
2023-03-02T09:31:15.481Z,20.00
2023-03-02T09:33:42.830Z,22.42
2023-03-02T09:36:11.615Z,21.38
2023-03-02T09:38:38.824Z,20.60
2023-03-02T09:41:21.019Z,21.17
2023-03-02T09:44:08.561Z,19.77
2023-03-02T09:46:56.708Z,18.88
2023-03-02T09:49:35.322Z,18.05
2023-03-02T09:52:23.999Z,18.25
2023-03-02T09:54:51.417Z,17.33
2023-03-02T09:57:24.056Z,17.88
2023-03-02T10:00:09.435Z,16.42
2023-03-02T10:02:55.396Z,16.15
2023-03-02T10:05:28.038Z,16.27
2023-03-02T10:07:57.410Z,17.05
2023-03-02T10:10:52.577Z,16.35
2023-03-02T10:13:23.796Z,16.13
2023-03-02T10:16:13.496Z,16.95
2023-03-02T10:18:59.184Z,15.60
2023-03-02T10:21:59.715Z,16.25
2023-03-02T10:25:08.186Z,15.68
2023-03-02T10:27:38.918Z,14.32
2023-03-02T10:30:27.594Z,15.57
2023-03-02T10:32:56.748Z,15.57
2023-03-02T10:35:25.769Z,15.93
2023-03-02T10:38:00.395Z,14.50
2023-03-02T10:41:03.176Z,14.50
2023-03-02T10:43:55.643Z,13.93
2023-03-02T10:46:22.823Z,14.18
2023-03-02T10:48:56.325Z,14.18
2023-03-02T10:51:26.077Z,13.95
2023-03-02T10:54:07.729Z,13.85
2023-03-02T10:56:35.365Z,13.60
2023-03-02T10:59:25.045Z,12.63
2023-03-02T11:02:02.919Z,12.93
2023-03-02T11:04:31.487Z,13.45
2023-03-02T11:07:09.008Z,13.13
2023-03-02T11:09:36.142Z,14.02
2023-03-02T11:12:03.374Z,12.50
2023-03-02T11:14:30.541Z,13.38
2023-03-02T11:17:00.969Z,12.15
2023-03-02T11:19:35.834Z,12.73
2023-03-02T11:22:09.364Z,12.00
2023-03-02T11:24:43.446Z,11.43
2023-03-02T11:27:15.899Z,10.10
2023-03-02T11:29:53.356Z,11.45
2023-03-02T11:32:26.587Z,10.68
2023-03-02T11:35:00.692Z,11.93
2023-03-02T11:37:47.080Z,13.07
2023-03-02T11:40:32.150Z,13.88
2023-03-02T11:43:00.310Z,12.57
2023-03-02T11:45:33.574Z,12.82
2023-03-02T11:48:12.640Z,13.55
2023-03-02T11:50:53.555Z,11.70
2023-03-02T11:53:21.074Z,12.23
2023-03-02T11:55:50.681Z,12.45
2023-03-02T11:58:20.715Z,11.98
2023-03-02T12:00:48.998Z,12.05
2023-03-02T12:03:16.123Z,13.88
2023-03-02T12:06:06.693Z,14.02
2023-03-02T12:08:46.439Z,13.50
2023-03-02T12:11:16.435Z,12.88
2023-03-02T12:14:05.523Z,12.80
2023-03-02T12:16:40.254Z,14.45
2023-03-02T12:19:16.657Z,13.45
2023-03-02T12:21:56.932Z,13.55
2023-03-02T12:24:31.049Z,12.35
2023-03-02T12:27:02.162Z,11.73
2023-03-02T12:29:45.756Z,11.63
2023-03-02T12:32:18.863Z,11.90
2023-03-02T12:35:08.516Z,11.63
2023-03-02T12:37:53.278Z,12.00
2023-03-02T12:40:33.915Z,12.07
2023-03-02T12:43:27.071Z,11.27
2023-03-02T12:46:27.612Z,12.23
2023-03-02T12:48:57.851Z,12.38
2023-03-02T12:51:27.786Z,11.35
2023-03-02T12:54:05.869Z,11.25
2023-03-02T12:56:34.040Z,11.20
2023-03-02T12:59:01.436Z,10.80
2023-03-02T13:01:30.928Z,10.52
2023-03-02T13:03:58.686Z,11.00
2023-03-02T13:06:28.373Z,10.88
2023-03-02T13:08:56.687Z,10.63
2023-03-02T13:11:31.135Z,10.45
2023-03-02T13:13:59.858Z,10.10
2023-03-02T13:16:33.020Z,10.55
2023-03-02T13:19:02.964Z,9.70
2023-03-02T13:21:38.150Z,9.85
2023-03-02T13:24:28.401Z,8.45
2023-03-02T13:26:57.653Z,9.45
2023-03-02T13:29:28.483Z,9.07
2023-03-02T13:31:55.846Z,8.45
2023-03-02T13:34:28.504Z,8.55
2023-03-02T13:36:55.679Z,8.35
2023-03-02T13:39:28.289Z,8.93
2023-03-02T13:42:00.196Z,8.07
2023-03-02T13:44:30.749Z,8.00
2023-03-02T13:46:58.458Z,7.97
2023-03-02T13:49:31.214Z,7.32
2023-03-02T13:52:22.395Z,7.72
2023-03-02T13:54:49.578Z,7.15
2023-03-02T13:57:30.649Z,7.25
2023-03-02T13:59:59.513Z,7.22
2023-03-02T14:02:29.510Z,6.38
2023-03-02T14:04:57.600Z,6.97
2023-03-02T14:07:24.852Z,6.50
2023-03-02T14:09:52.022Z,6.10
2023-03-02T14:12:30.984Z,6.35
2023-03-02T14:15:00.794Z,6.43
2023-03-02T14:17:28.155Z,6.85
2023-03-02T14:19:55.753Z,7.93
2023-03-02T14:22:26.631Z,7.90
2023-03-02T14:24:54.751Z,7.65
2023-03-02T14:27:30.034Z,8.00
2023-03-02T14:29:57.352Z,8.80
2023-03-02T14:32:24.552Z,9.50
2023-03-02T14:34:51.827Z,9.98
2023-03-02T14:37:22.199Z,8.38
2023-03-02T14:39:56.755Z,9.05
2023-03-02T14:42:25.139Z,9.05
2023-03-02T14:44:52.628Z,9.95
2023-03-02T14:47:21.654Z,8.95
2023-03-02T14:49:49.430Z,10.13
2023-03-02T14:52:25.055Z,11.45
2023-03-02T14:57:28.223Z,17.63
2023-03-02T14:59:56.157Z,19.40
2023-03-02T15:02:26.786Z,23.00
2023-03-02T15:04:57.063Z,25.90
2023-03-02T15:07:27.682Z,28.98
2023-03-02T15:09:58.423Z,31.00
2023-03-02T15:12:27.815Z,35.15
2023-03-02T15:14:55.125Z,38.20
2023-03-02T15:17:22.330Z,39.35
2023-03-02T15:19:49.580Z,40.17
2023-03-02T15:22:16.857Z,44.03
2023-03-02T15:24:44.054Z,47.10
2023-03-02T15:27:11.208Z,45.22
2023-03-02T15:29:38.570Z,43.60
2023-03-02T15:32:05.937Z,45.80
2023-03-02T15:34:33.137Z,44.08
2023-03-02T15:37:01.412Z,42.47
2023-03-02T15:39:28.571Z,41.35
2023-03-02T15:41:55.809Z,39.70
2023-03-02T15:44:24.742Z,35.83
2023-03-02T15:46:56.240Z,34.17
2023-03-02T15:49:24.473Z,36.58
2023-03-02T15:51:52.958Z,38.35
2023-03-02T15:54:21.245Z,38.83
2023-03-02T15:56:53.586Z,37.97
2023-03-02T15:59:25.676Z,38.25
2023-03-02T16:01:59.204Z,38.45
2023-03-02T16:04:27.063Z,30.88
2023-03-02T16:06:54.993Z,33.85
2023-03-02T16:09:23.513Z,31.58
2023-03-02T16:11:50.860Z,31.50
2023-03-02T16:14:18.674Z,32.05
2023-03-02T16:16:46.233Z,34.15
2023-03-02T16:19:17.188Z,35.45
2023-03-02T16:21:46.955Z,39.38
2023-03-02T16:24:16.105Z,34.90
2023-03-02T16:26:43.566Z,31.88
2023-03-02T16:29:12.143Z,30.05
2023-03-02T16:31:42.205Z,30.35
2023-03-02T16:34:10.074Z,29.75
2023-03-02T16:36:39.013Z,30.60
2023-03-02T16:39:07.197Z,30.05
2023-03-02T16:41:35.149Z,33.33
2023-03-02T16:44:02.685Z,33.28
2023-03-02T16:46:31.985Z,29.95
2023-03-02T16:48:59.480Z,31.33
2023-03-02T16:51:26.712Z,31.98
2023-03-02T16:53:54.140Z,30.25
2023-03-02T16:56:21.577Z,30.13
2023-03-02T16:58:49.194Z,28.85
2023-03-02T17:01:19.100Z,25.42
2023-03-02T17:03:47.462Z,24.95
2023-03-02T17:06:16.114Z,23.38
2023-03-02T17:08:43.425Z,20.88
2023-03-02T17:11:10.847Z,19.48
2023-03-02T17:13:39.049Z,20.30
2023-03-02T17:16:06.650Z,19.70
2023-03-02T17:18:33.978Z,22.95
2023-03-02T17:21:02.268Z,23.08
2023-03-02T17:23:31.180Z,21.40
2023-03-02T17:25:58.510Z,21.20
2023-03-02T17:28:26.072Z,21.13
